sensor_id;sensor_type;location;lat;lon;timestamp;P1;durP1;ratioP1;P2;durP2;ratioP2
20445;SDS011;10382;49.140;9.234;2022-12-10T00:00:34;28.83;;;15.80;;
20445;SDS011;10382;49.140;9.234;2022-12-10T00:03:01;39.60;;;19.63;;
20445;SDS011;10382;49.140;9.234;2022-12-10T00:05:30;31.98;;;17.25;;
20445;SDS011;10382;49.140;9.234;2022-12-10T00:07:59;42.25;;;19.23;;
20445;SDS011;10382;49.140;9.234;2022-12-10T00:10:26;30.85;;;17.55;;
20445;SDS011;10382;49.140;9.234;2022-12-10T00:12:53;35.70;;;16.88;;
20445;SDS011;10382;49.140;9.234;2022-12-10T00:15:20;32.17;;;19.27;;
20445;SDS011;10382;49.140;9.234;2022-12-10T00:17:46;28.85;;;15.98;;
20445;SDS011;10382;49.140;9.234;2022-12-10T00:20:13;32.30;;;17.50;;
20445;SDS011;10382;49.140;9.234;2022-12-10T00:22:42;37.83;;;17.95;;
20445;SDS011;10382;49.140;9.234;2022-12-10T00:25:08;32.58;;;17.00;;
20445;SDS011;10382;49.140;9.234;2022-12-10T00:27:35;32.33;;;18.05;;
20445;SDS011;10382;49.140;9.234;2022-12-10T00:30:02;30.40;;;17.70;;
20445;SDS011;10382;49.140;9.234;2022-12-10T00:32:30;31.98;;;17.63;;
20445;SDS011;10382;49.140;9.234;2022-12-10T00:34:57;28.90;;;15.50;;
20445;SDS011;10382;49.140;9.234;2022-12-10T00:37:23;35.22;;;17.42;;
20445;SDS011;10382;49.140;9.234;2022-12-10T00:39:52;28.42;;;16.48;;
20445;SDS011;10382;49.140;9.234;2022-12-10T00:42:18;31.05;;;15.55;;
20445;SDS011;10382;49.140;9.234;2022-12-10T00:44:45;36.83;;;16.90;;
20445;SDS011;10382;49.140;9.234;2022-12-10T00:47:12;32.47;;;16.23;;
20445;SDS011;10382;49.140;9.234;2022-12-10T00:49:39;33.42;;;16.85;;
20445;SDS011;10382;49.140;9.234;2022-12-10T00:52:06;33.58;;;17.95;;
20445;SDS011;10382;49.140;9.234;2022-12-10T00:54:33;25.00;;;16.02;;
20445;SDS011;10382;49.140;9.234;2022-12-10T00:57:01;27.92;;;15.55;;
20445;SDS011;10382;49.140;9.234;2022-12-10T00:59:28;28.00;;;15.98;;
20445;SDS011;10382;49.140;9.234;2022-12-10T01:01:55;33.25;;;18.02;;
20445;SDS011;10382;49.140;9.234;2022-12-10T01:04:21;33.03;;;16.70;;
20445;SDS011;10382;49.140;9.234;2022-12-10T01:06:49;27.98;;;15.75;;
20445;SDS011;10382;49.140;9.234;2022-12-10T01:09:18;28.67;;;15.10;;
20445;SDS011;10382;49.140;9.234;2022-12-10T01:11:47;33.85;;;16.98;;
20445;SDS011;10382;49.140;9.234;2022-12-10T01:14:17;33.28;;;17.20;;
20445;SDS011;10382;49.140;9.234;2022-12-10T01:16:46;37.10;;;18.90;;
20445;SDS011;10382;49.140;9.234;2022-12-10T01:19:13;31.42;;;16.73;;
20445;SDS011;10382;49.140;9.234;2022-12-10T01:21:40;31.05;;;17.33;;
20445;SDS011;10382;49.140;9.234;2022-12-10T01:24:07;34.75;;;15.80;;
20445;SDS011;10382;49.140;9.234;2022-12-10T01:26:34;35.88;;;17.83;;
20445;SDS011;10382;49.140;9.234;2022-12-10T01:29:02;49.65;;;18.48;;
20445;SDS011;10382;49.140;9.234;2022-12-10T01:31:31;38.00;;;18.33;;
20445;SDS011;10382;49.140;9.234;2022-12-10T01:34:00;34.53;;;17.00;;
20445;SDS011;10382;49.140;9.234;2022-12-10T01:36:28;40.70;;;18.55;;
20445;SDS011;10382;49.140;9.234;2022-12-10T01:38:57;35.38;;;17.67;;
20445;SDS011;10382;49.140;9.234;2022-12-10T01:41:25;32.10;;;17.88;;
20445;SDS011;10382;49.140;9.234;2022-12-10T01:43:55;36.13;;;16.52;;
20445;SDS011;10382;49.140;9.234;2022-12-10T01:46:23;30.83;;;17.13;;
20445;SDS011;10382;49.140;9.234;2022-12-10T01:48:53;33.53;;;17.40;;
20445;SDS011;10382;49.140;9.234;2022-12-10T01:51:21;34.58;;;17.45;;
20445;SDS011;10382;49.140;9.234;2022-12-10T01:53:48;41.60;;;19.50;;
20445;SDS011;10382;49.140;9.234;2022-12-10T01:56:16;36.33;;;18.10;;
20445;SDS011;10382;49.140;9.234;2022-12-10T01:58:44;33.22;;;17.90;;
20445;SDS011;10382;49.140;9.234;2022-12-10T02:01:14;43.75;;;17.10;;
20445;SDS011;10382;49.140;9.234;2022-12-10T02:03:51;39.72;;;18.50;;
20445;SDS011;10382;49.140;9.234;2022-12-10T02:06:27;32.17;;;17.52;;
20445;SDS011;10382;49.140;9.234;2022-12-10T02:09:04;29.33;;;16.00;;
20445;SDS011;10382;49.140;9.234;2022-12-10T02:11:40;31.20;;;16.67;;
20445;SDS011;10382;49.140;9.234;2022-12-10T02:14:14;32.85;;;18.30;;
20445;SDS011;10382;49.140;9.234;2022-12-10T02:16:46;28.35;;;15.57;;
20445;SDS011;10382;49.140;9.234;2022-12-10T02:19:21;30.45;;;16.42;;
20445;SDS011;10382;49.140;9.234;2022-12-10T02:21:55;32.90;;;17.50;;
20445;SDS011;10382;49.140;9.234;2022-12-10T02:24:24;33.10;;;17.95;;
20445;SDS011;10382;49.140;9.234;2022-12-10T02:26:56;34.75;;;18.83;;
20445;SDS011;10382;49.140;9.234;2022-12-10T02:29:32;30.27;;;16.38;;
20445;SDS011;10382;49.140;9.234;2022-12-10T02:32:01;35.85;;;17.23;;
20445;SDS011;10382;49.140;9.234;2022-12-10T02:34:32;28.25;;;16.20;;
20445;SDS011;10382;49.140;9.234;2022-12-10T02:37:03;37.35;;;17.52;;
20445;SDS011;10382;49.140;9.234;2022-12-10T02:39:34;31.98;;;18.02;;
20445;SDS011;10382;49.140;9.234;2022-12-10T02:42:04;40.17;;;19.02;;
20445;SDS011;10382;49.140;9.234;2022-12-10T02:44:35;31.33;;;17.00;;
20445;SDS011;10382;49.140;9.234;2022-12-10T02:47:04;35.90;;;17.23;;
20445;SDS011;10382;49.140;9.234;2022-12-10T02:49:32;37.20;;;17.88;;
20445;SDS011;10382;49.140;9.234;2022-12-10T02:52:05;29.27;;;16.70;;
20445;SDS011;10382;49.140;9.234;2022-12-10T02:54:36;33.00;;;16.35;;
20445;SDS011;10382;49.140;9.234;2022-12-10T02:57:08;34.22;;;18.50;;
20445;SDS011;10382;49.140;9.234;2022-12-10T02:59:46;33.08;;;17.15;;
20445;SDS011;10382;49.140;9.234;2022-12-10T03:02:20;34.15;;;17.50;;
20445;SDS011;10382;49.140;9.234;2022-12-10T03:04:57;32.75;;;17.52;;
20445;SDS011;10382;49.140;9.234;2022-12-10T03:07:35;39.63;;;18.98;;
20445;SDS011;10382;49.140;9.234;2022-12-10T03:10:08;32.20;;;18.30;;
20445;SDS011;10382;49.140;9.234;2022-12-10T03:12:41;40.17;;;18.95;;
20445;SDS011;10382;49.140;9.234;2022-12-10T03:15:13;32.70;;;17.80;;
20445;SDS011;10382;49.140;9.234;2022-12-10T03:17:41;35.90;;;19.23;;
20445;SDS011;10382;49.140;9.234;2022-12-10T03:20:11;38.88;;;16.27;;
20445;SDS011;10382;49.140;9.234;2022-12-10T03:22:40;30.73;;;16.20;;
20445;SDS011;10382;49.140;9.234;2022-12-10T03:25:11;39.65;;;19.17;;
20445;SDS011;10382;49.140;9.234;2022-12-10T03:27:49;34.78;;;17.55;;
20445;SDS011;10382;49.140;9.234;2022-12-10T03:30:21;36.15;;;16.10;;
20445;SDS011;10382;49.140;9.234;2022-12-10T03:32:48;33.78;;;17.38;;
20445;SDS011;10382;49.140;9.234;2022-12-10T03:35:16;41.45;;;17.70;;
20445;SDS011;10382;49.140;9.234;2022-12-10T03:37:45;36.65;;;17.65;;
20445;SDS011;10382;49.140;9.234;2022-12-10T03:40:14;39.58;;;17.77;;
20445;SDS011;10382;49.140;9.234;2022-12-10T03:42:43;41.30;;;19.27;;
20445;SDS011;10382;49.140;9.234;2022-12-10T03:45:10;34.88;;;18.50;;
20445;SDS011;10382;49.140;9.234;2022-12-10T03:47:38;31.65;;;16.65;;
20445;SDS011;10382;49.140;9.234;2022-12-10T03:50:05;31.27;;;17.17;;
20445;SDS011;10382;49.140;9.234;2022-12-10T03:52:32;32.10;;;15.73;;
20445;SDS011;10382;49.140;9.234;2022-12-10T03:54:59;29.85;;;16.30;;
20445;SDS011;10382;49.140;9.234;2022-12-10T03:57:27;37.00;;;19.52;;
20445;SDS011;10382;49.140;9.234;2022-12-10T03:59:54;36.13;;;17.85;;
20445;SDS011;10382;49.140;9.234;2022-12-10T04:02:21;34.17;;;18.33;;
20445;SDS011;10382;49.140;9.234;2022-12-10T04:04:49;34.67;;;17.33;;
20445;SDS011;10382;49.140;9.234;2022-12-10T04:07:16;42.72;;;20.27;;
20445;SDS011;10382;49.140;9.234;2022-12-10T04:09:43;37.60;;;18.60;;
20445;SDS011;10382;49.140;9.234;2022-12-10T04:12:09;36.17;;;17.75;;
20445;SDS011;10382;49.140;9.234;2022-12-10T04:14:36;33.80;;;18.13;;
20445;SDS011;10382;49.140;9.234;2022-12-10T04:17:21;30.05;;;15.90;;
20445;SDS011;10382;49.140;9.234;2022-12-10T04:19:49;33.83;;;17.92;;
20445;SDS011;10382;49.140;9.234;2022-12-10T04:22:16;31.90;;;17.98;;
20445;SDS011;10382;49.140;9.234;2022-12-10T04:25:01;35.08;;;16.05;;
20445;SDS011;10382;49.140;9.234;2022-12-10T04:27:45;31.38;;;16.75;;
20445;SDS011;10382;49.140;9.234;2022-12-10T04:30:12;31.58;;;17.38;;
20445;SDS011;10382;49.140;9.234;2022-12-10T04:32:39;40.38;;;18.75;;
20445;SDS011;10382;49.140;9.234;2022-12-10T04:35:07;40.72;;;19.73;;
20445;SDS011;10382;49.140;9.234;2022-12-10T04:37:35;32.95;;;17.80;;
20445;SDS011;10382;49.140;9.234;2022-12-10T04:40:03;35.60;;;17.40;;
20445;SDS011;10382;49.140;9.234;2022-12-10T04:42:30;36.30;;;18.33;;
20445;SDS011;10382;49.140;9.234;2022-12-10T04:44:57;36.50;;;17.80;;
20445;SDS011;10382;49.140;9.234;2022-12-10T04:47:24;44.25;;;17.45;;
20445;SDS011;10382;49.140;9.234;2022-12-10T04:49:51;38.50;;;18.35;;
20445;SDS011;10382;49.140;9.234;2022-12-10T04:52:19;32.90;;;17.10;;
20445;SDS011;10382;49.140;9.234;2022-12-10T04:54:46;36.13;;;17.83;;
20445;SDS011;10382;49.140;9.234;2022-12-10T04:57:13;43.03;;;20.75;;
20445;SDS011;10382;49.140;9.234;2022-12-10T04:59:40;34.53;;;17.88;;
20445;SDS011;10382;49.140;9.234;2022-12-10T05:02:07;32.63;;;18.88;;
20445;SDS011;10382;49.140;9.234;2022-12-10T05:04:34;33.65;;;17.98;;
20445;SDS011;10382;49.140;9.234;2022-12-10T05:07:01;32.15;;;17.08;;
20445;SDS011;10382;49.140;9.234;2022-12-10T05:09:29;37.40;;;19.45;;
20445;SDS011;10382;49.140;9.234;2022-12-10T05:11:56;34.78;;;18.33;;
20445;SDS011;10382;49.140;9.234;2022-12-10T05:14:23;34.55;;;18.00;;
20445;SDS011;10382;49.140;9.234;2022-12-10T05:16:50;32.22;;;16.33;;
20445;SDS011;10382;49.140;9.234;2022-12-10T05:19:17;33.17;;;17.55;;
20445;SDS011;10382;49.140;9.234;2022-12-10T05:21:46;36.97;;;17.77;;
20445;SDS011;10382;49.140;9.234;2022-12-10T05:24:33;36.78;;;17.27;;
20445;SDS011;10382;49.140;9.234;2022-12-10T05:26:59;33.45;;;17.20;;
20445;SDS011;10382;49.140;9.234;2022-12-10T05:29:27;34.55;;;19.02;;
20445;SDS011;10382;49.140;9.234;2022-12-10T05:31:54;30.05;;;17.48;;
20445;SDS011;10382;49.140;9.234;2022-12-10T05:34:21;31.42;;;17.30;;
20445;SDS011;10382;49.140;9.234;2022-12-10T05:36:47;32.03;;;17.02;;
20445;SDS011;10382;49.140;9.234;2022-12-10T05:39:14;28.10;;;16.83;;
20445;SDS011;10382;49.140;9.234;2022-12-10T05:41:43;32.15;;;16.70;;
20445;SDS011;10382;49.140;9.234;2022-12-10T05:44:10;36.92;;;19.23;;
20445;SDS011;10382;49.140;9.234;2022-12-10T05:46:37;30.10;;;17.70;;
20445;SDS011;10382;49.140;9.234;2022-12-10T05:49:05;31.08;;;16.60;;
20445;SDS011;10382;49.140;9.234;2022-12-10T05:51:33;32.25;;;16.35;;
20445;SDS011;10382;49.140;9.234;2022-12-10T05:54:02;32.60;;;17.02;;
20445;SDS011;10382;49.140;9.234;2022-12-10T05:56:30;30.23;;;16.70;;
20445;SDS011;10382;49.140;9.234;2022-12-10T05:58:59;31.00;;;17.17;;
20445;SDS011;10382;49.140;9.234;2022-12-10T06:01:28;32.60;;;17.60;;
20445;SDS011;10382;49.140;9.234;2022-12-10T06:03:58;31.85;;;17.83;;
20445;SDS011;10382;49.140;9.234;2022-12-10T06:06:26;27.85;;;15.32;;
20445;SDS011;10382;49.140;9.234;2022-12-10T06:08:55;30.35;;;17.63;;
20445;SDS011;10382;49.140;9.234;2022-12-10T06:11:23;33.90;;;16.77;;
20445;SDS011;10382;49.140;9.234;2022-12-10T06:13:51;37.22;;;18.42;;
20445;SDS011;10382;49.140;9.234;2022-12-10T06:16:20;35.13;;;17.38;;
20445;SDS011;10382;49.140;9.234;2022-12-10T06:18:47;28.95;;;17.58;;
20445;SDS011;10382;49.140;9.234;2022-12-10T06:21:14;36.67;;;18.13;;
20445;SDS011;10382;49.140;9.234;2022-12-10T06:23:42;42.03;;;19.05;;
20445;SDS011;10382;49.140;9.234;2022-12-10T06:26:10;35.47;;;17.80;;
20445;SDS011;10382;49.140;9.234;2022-12-10T06:28:38;33.72;;;18.10;;
20445;SDS011;10382;49.140;9.234;2022-12-10T06:31:05;29.73;;;16.77;;
20445;SDS011;10382;49.140;9.234;2022-12-10T06:33:34;36.60;;;18.75;;
20445;SDS011;10382;49.140;9.234;2022-12-10T06:36:02;36.78;;;18.48;;
20445;SDS011;10382;49.140;9.234;2022-12-10T06:38:30;32.90;;;17.38;;
20445;SDS011;10382;49.140;9.234;2022-12-10T06:40:58;31.75;;;17.83;;
20445;SDS011;10382;49.140;9.234;2022-12-10T06:43:27;38.95;;;19.10;;
20445;SDS011;10382;49.140;9.234;2022-12-10T06:45:54;32.60;;;17.08;;
20445;SDS011;10382;49.140;9.234;2022-12-10T06:48:21;34.03;;;17.50;;
20445;SDS011;10382;49.140;9.234;2022-12-10T06:50:49;33.20;;;17.45;;
20445;SDS011;10382;49.140;9.234;2022-12-10T06:53:16;31.95;;;18.42;;
20445;SDS011;10382;49.140;9.234;2022-12-10T06:55:43;40.22;;;18.67;;
20445;SDS011;10382;49.140;9.234;2022-12-10T06:58:10;34.70;;;18.23;;
20445;SDS011;10382;49.140;9.234;2022-12-10T07:00:37;41.78;;;19.05;;
20445;SDS011;10382;49.140;9.234;2022-12-10T07:03:04;35.88;;;18.38;;
20445;SDS011;10382;49.140;9.234;2022-12-10T07:05:31;38.13;;;18.25;;
20445;SDS011;10382;49.140;9.234;2022-12-10T07:07:59;33.83;;;17.23;;
20445;SDS011;10382;49.140;9.234;2022-12-10T07:10:26;38.15;;;19.00;;
20445;SDS011;10382;49.140;9.234;2022-12-10T07:12:52;36.55;;;20.00;;
20445;SDS011;10382;49.140;9.234;2022-12-10T07:15:19;39.38;;;20.70;;
20445;SDS011;10382;49.140;9.234;2022-12-10T07:17:48;39.60;;;18.65;;
20445;SDS011;10382;49.140;9.234;2022-12-10T07:20:16;36.80;;;18.13;;
20445;SDS011;10382;49.140;9.234;2022-12-10T07:22:43;37.50;;;18.45;;
20445;SDS011;10382;49.140;9.234;2022-12-10T07:25:11;28.60;;;16.25;;
20445;SDS011;10382;49.140;9.234;2022-12-10T07:27:38;38.20;;;18.85;;
20445;SDS011;10382;49.140;9.234;2022-12-10T07:30:05;32.97;;;18.65;;
20445;SDS011;10382;49.140;9.234;2022-12-10T07:32:33;33.60;;;18.48;;
20445;SDS011;10382;49.140;9.234;2022-12-10T07:35:00;36.33;;;18.73;;
20445;SDS011;10382;49.140;9.234;2022-12-10T07:37:27;40.60;;;21.73;;
20445;SDS011;10382;49.140;9.234;2022-12-10T07:39:53;36.20;;;17.60;;
20445;SDS011;10382;49.140;9.234;2022-12-10T07:42:22;34.85;;;17.67;;
20445;SDS011;10382;49.140;9.234;2022-12-10T07:44:49;36.50;;;19.25;;
20445;SDS011;10382;49.140;9.234;2022-12-10T07:47:15;28.30;;;15.80;;
20445;SDS011;10382;49.140;9.234;2022-12-10T07:49:43;34.58;;;17.65;;
20445;SDS011;10382;49.140;9.234;2022-12-10T07:52:09;38.47;;;19.20;;
20445;SDS011;10382;49.140;9.234;2022-12-10T07:54:36;28.08;;;15.75;;
20445;SDS011;10382;49.140;9.234;2022-12-10T07:57:03;33.03;;;17.77;;
20445;SDS011;10382;49.140;9.234;2022-12-10T07:59:31;29.27;;;16.90;;
20445;SDS011;10382;49.140;9.234;2022-12-10T08:01:59;35.00;;;17.20;;
20445;SDS011;10382;49.140;9.234;2022-12-10T08:04:27;27.48;;;16.13;;
20445;SDS011;10382;49.140;9.234;2022-12-10T08:06:54;36.90;;;18.80;;
20445;SDS011;10382;49.140;9.234;2022-12-10T08:09:21;39.30;;;19.10;;
20445;SDS011;10382;49.140;9.234;2022-12-10T08:11:48;29.05;;;16.50;;
20445;SDS011;10382;49.140;9.234;2022-12-10T08:14:15;28.00;;;15.85;;
20445;SDS011;10382;49.140;9.234;2022-12-10T08:16:43;29.05;;;16.73;;
20445;SDS011;10382;49.140;9.234;2022-12-10T08:19:10;37.70;;;19.23;;
20445;SDS011;10382;49.140;9.234;2022-12-10T08:21:36;33.17;;;18.45;;
20445;SDS011;10382;49.140;9.234;2022-12-10T08:24:04;31.63;;;18.05;;
20445;SDS011;10382;49.140;9.234;2022-12-10T08:26:31;32.15;;;17.92;;
20445;SDS011;10382;49.140;9.234;2022-12-10T08:28:59;31.40;;;18.27;;
20445;SDS011;10382;49.140;9.234;2022-12-10T08:31:26;31.83;;;19.65;;
20445;SDS011;10382;49.140;9.234;2022-12-10T08:33:55;38.25;;;19.45;;
20445;SDS011;10382;49.140;9.234;2022-12-10T08:36:22;33.60;;;18.02;;
20445;SDS011;10382;49.140;9.234;2022-12-10T08:38:49;29.30;;;17.47;;
20445;SDS011;10382;49.140;9.234;2022-12-10T08:41:17;34.77;;;17.70;;
20445;SDS011;10382;49.140;9.234;2022-12-10T08:43:45;35.03;;;19.67;;
20445;SDS011;10382;49.140;9.234;2022-12-10T08:46:13;35.60;;;17.90;;
20445;SDS011;10382;49.140;9.234;2022-12-10T08:48:40;28.95;;;16.75;;
20445;SDS011;10382;49.140;9.234;2022-12-10T08:51:10;28.27;;;16.92;;
20445;SDS011;10382;49.140;9.234;2022-12-10T08:53:40;30.38;;;17.05;;
20445;SDS011;10382;49.140;9.234;2022-12-10T08:56:07;30.48;;;16.95;;
20445;SDS011;10382;49.140;9.234;2022-12-10T08:58:35;26.80;;;16.55;;
20445;SDS011;10382;49.140;9.234;2022-12-10T09:01:05;27.58;;;15.63;;
20445;SDS011;10382;49.140;9.234;2022-12-10T09:03:33;32.13;;;18.02;;
20445;SDS011;10382;49.140;9.234;2022-12-10T09:06:01;75.83;;;32.93;;
20445;SDS011;10382;49.140;9.234;2022-12-10T09:08:30;40.55;;;21.77;;
20445;SDS011;10382;49.140;9.234;2022-12-10T09:10:58;39.38;;;20.25;;
20445;SDS011;10382;49.140;9.234;2022-12-10T09:13:29;34.63;;;19.02;;
20445;SDS011;10382;49.140;9.234;2022-12-10T09:15:56;36.20;;;18.63;;
20445;SDS011;10382;49.140;9.234;2022-12-10T09:18:23;35.57;;;20.30;;
20445;SDS011;10382;49.140;9.234;2022-12-10T09:20:50;32.97;;;19.40;;
20445;SDS011;10382;49.140;9.234;2022-12-10T09:23:17;31.03;;;17.40;;
20445;SDS011;10382;49.140;9.234;2022-12-10T09:25:45;27.05;;;16.17;;
20445;SDS011;10382;49.140;9.234;2022-12-10T09:28:12;28.97;;;15.63;;
20445;SDS011;10382;49.140;9.234;2022-12-10T09:30:39;26.63;;;17.88;;
20445;SDS011;10382;49.140;9.234;2022-12-10T09:33:06;29.37;;;17.97;;
20445;SDS011;10382;49.140;9.234;2022-12-10T09:35:32;27.30;;;15.83;;
20445;SDS011;10382;49.140;9.234;2022-12-10T09:37:59;25.17;;;15.88;;
20445;SDS011;10382;49.140;9.234;2022-12-10T09:40:29;38.37;;;17.07;;
20445;SDS011;10382;49.140;9.234;2022-12-10T09:43:06;35.47;;;18.90;;
20445;SDS011;10382;49.140;9.234;2022-12-10T09:45:42;27.63;;;15.77;;
20445;SDS011;10382;49.140;9.234;2022-12-10T09:48:20;31.83;;;17.23;;
20445;SDS011;10382;49.140;9.234;2022-12-10T09:50:58;34.37;;;18.77;;
20445;SDS011;10382;49.140;9.234;2022-12-10T09:53:33;42.63;;;23.63;;
20445;SDS011;10382;49.140;9.234;2022-12-10T09:56:02;46.13;;;27.87;;
20445;SDS011;10382;49.140;9.234;2022-12-10T09:58:31;47.10;;;32.53;;
20445;SDS011;10382;49.140;9.234;2022-12-10T10:01:00;50.37;;;34.80;;
20445;SDS011;10382;49.140;9.234;2022-12-10T10:03:31;50.80;;;33.40;;
20445;SDS011;10382;49.140;9.234;2022-12-10T10:06:01;32.97;;;19.00;;
20445;SDS011;10382;49.140;9.234;2022-12-10T10:08:31;23.43;;;15.00;;
20445;SDS011;10382;49.140;9.234;2022-12-10T10:11:01;27.20;;;15.83;;
20445;SDS011;10382;49.140;9.234;2022-12-10T10:13:32;24.67;;;15.33;;
20445;SDS011;10382;49.140;9.234;2022-12-10T10:16:12;28.90;;;16.43;;
20445;SDS011;10382;49.140;9.234;2022-12-10T10:18:46;26.47;;;15.50;;
20445;SDS011;10382;49.140;9.234;2022-12-10T10:21:20;26.30;;;16.07;;
20445;SDS011;10382;49.140;9.234;2022-12-10T10:23:48;28.07;;;13.90;;
20445;SDS011;10382;49.140;9.234;2022-12-10T10:26:15;22.40;;;14.17;;
20445;SDS011;10382;49.140;9.234;2022-12-10T10:28:43;21.47;;;12.77;;
20445;SDS011;10382;49.140;9.234;2022-12-10T10:31:12;29.43;;;15.43;;
20445;SDS011;10382;49.140;9.234;2022-12-10T10:33:49;38.03;;;18.80;;
20445;SDS011;10382;49.140;9.234;2022-12-10T10:36:22;28.00;;;15.70;;
20445;SDS011;10382;49.140;9.234;2022-12-10T10:38:50;25.57;;;14.80;;
20445;SDS011;10382;49.140;9.234;2022-12-10T10:41:17;20.77;;;12.57;;
20445;SDS011;10382;49.140;9.234;2022-12-10T10:43:46;21.83;;;13.83;;
20445;SDS011;10382;49.140;9.234;2022-12-10T10:46:16;25.17;;;14.67;;
20445;SDS011;10382;49.140;9.234;2022-12-10T10:48:46;22.10;;;14.07;;
20445;SDS011;10382;49.140;9.234;2022-12-10T10:51:15;24.30;;;14.37;;
20445;SDS011;10382;49.140;9.234;2022-12-10T10:53:48;26.00;;;14.97;;
20445;SDS011;10382;49.140;9.234;2022-12-10T10:56:17;25.53;;;15.83;;
20445;SDS011;10382;49.140;9.234;2022-12-10T10:58:52;26.03;;;14.90;;
20445;SDS011;10382;49.140;9.234;2022-12-10T11:01:21;24.40;;;13.50;;
20445;SDS011;10382;49.140;9.234;2022-12-10T11:03:54;31.00;;;16.97;;
20445;SDS011;10382;49.140;9.234;2022-12-10T11:06:23;26.13;;;15.97;;
20445;SDS011;10382;49.140;9.234;2022-12-10T11:08:54;22.40;;;14.40;;
20445;SDS011;10382;49.140;9.234;2022-12-10T11:11:25;28.83;;;16.10;;
20445;SDS011;10382;49.140;9.234;2022-12-10T11:14:13;24.73;;;15.33;;
20445;SDS011;10382;49.140;9.234;2022-12-10T11:16:46;32.80;;;15.77;;
20445;SDS011;10382;49.140;9.234;2022-12-10T11:19:18;24.50;;;14.70;;
20445;SDS011;10382;49.140;9.234;2022-12-10T11:21:46;27.13;;;14.90;;
20445;SDS011;10382;49.140;9.234;2022-12-10T11:24:15;23.30;;;14.20;;
20445;SDS011;10382;49.140;9.234;2022-12-10T11:26:53;30.93;;;16.73;;
20445;SDS011;10382;49.140;9.234;2022-12-10T11:32:19;27.30;;;15.50;;
20445;SDS011;10382;49.140;9.234;2022-12-10T11:35:06;24.50;;;14.43;;
20445;SDS011;10382;49.140;9.234;2022-12-10T11:37:39;24.80;;;14.90;;
20445;SDS011;10382;49.140;9.234;2022-12-10T11:40:34;22.50;;;13.53;;
20445;SDS011;10382;49.140;9.234;2022-12-10T11:46:27;24.70;;;14.17;;
20445;SDS011;10382;49.140;9.234;2022-12-10T11:49:18;31.70;;;15.43;;
20445;SDS011;10382;49.140;9.234;2022-12-10T11:51:53;26.90;;;15.90;;
20445;SDS011;10382;49.140;9.234;2022-12-10T11:54:33;25.87;;;14.83;;
20445;SDS011;10382;49.140;9.234;2022-12-10T11:57:14;26.60;;;13.70;;
20445;SDS011;10382;49.140;9.234;2022-12-10T11:59:49;25.83;;;14.07;;
20445;SDS011;10382;49.140;9.234;2022-12-10T12:02:31;24.47;;;12.97;;
20445;SDS011;10382;49.140;9.234;2022-12-10T12:05:19;22.83;;;13.77;;
20445;SDS011;10382;49.140;9.234;2022-12-10T12:07:55;23.50;;;13.40;;
20445;SDS011;10382;49.140;9.234;2022-12-10T12:13:24;25.13;;;14.13;;
20445;SDS011;10382;49.140;9.234;2022-12-10T12:15:54;23.93;;;13.43;;
20445;SDS011;10382;49.140;9.234;2022-12-10T12:18:31;25.43;;;14.83;;
20445;SDS011;10382;49.140;9.234;2022-12-10T12:21:07;23.47;;;13.80;;
20445;SDS011;10382;49.140;9.234;2022-12-10T12:23:39;37.83;;;15.70;;
20445;SDS011;10382;49.140;9.234;2022-12-10T12:26:15;25.97;;;14.40;;
20445;SDS011;10382;49.140;9.234;2022-12-10T12:28:49;26.33;;;15.10;;
20445;SDS011;10382;49.140;9.234;2022-12-10T12:31:22;29.07;;;14.97;;
20445;SDS011;10382;49.140;9.234;2022-12-10T12:33:56;27.20;;;15.47;;
20445;SDS011;10382;49.140;9.234;2022-12-10T12:36:27;24.83;;;13.80;;
20445;SDS011;10382;49.140;9.234;2022-12-10T12:38:57;23.73;;;12.67;;
20445;SDS011;10382;49.140;9.234;2022-12-10T12:41:30;24.77;;;12.77;;
20445;SDS011;10382;49.140;9.234;2022-12-10T12:44:04;23.90;;;13.17;;
20445;SDS011;10382;49.140;9.234;2022-12-10T12:46:38;24.75;;;13.70;;
20445;SDS011;10382;49.140;9.234;2022-12-10T12:49:11;22.83;;;13.37;;
20445;SDS011;10382;49.140;9.234;2022-12-10T12:51:45;24.50;;;13.40;;
20445;SDS011;10382;49.140;9.234;2022-12-10T12:54:18;21.43;;;13.07;;
20445;SDS011;10382;49.140;9.234;2022-12-10T12:56:56;27.03;;;14.80;;
20445;SDS011;10382;49.140;9.234;2022-12-10T12:59:33;23.07;;;13.13;;
20445;SDS011;10382;49.140;9.234;2022-12-10T13:02:08;22.00;;;11.60;;
20445;SDS011;10382;49.140;9.234;2022-12-10T13:04:51;26.07;;;13.27;;
20445;SDS011;10382;49.140;9.234;2022-12-10T13:07:29;24.63;;;13.03;;
20445;SDS011;10382;49.140;9.234;2022-12-10T13:10:08;23.87;;;12.63;;
20445;SDS011;10382;49.140;9.234;2022-12-10T13:12:50;23.27;;;12.47;;
20445;SDS011;10382;49.140;9.234;2022-12-10T13:15:32;25.10;;;13.57;;
20445;SDS011;10382;49.140;9.234;2022-12-10T13:18:02;20.67;;;11.77;;
20445;SDS011;10382;49.140;9.234;2022-12-10T13:20:47;21.13;;;11.20;;
20445;SDS011;10382;49.140;9.234;2022-12-10T13:23:28;24.42;;;14.02;;
20445;SDS011;10382;49.140;9.234;2022-12-10T13:25:57;19.20;;;12.10;;
20445;SDS011;10382;49.140;9.234;2022-12-10T13:28:27;20.97;;;12.70;;
20445;SDS011;10382;49.140;9.234;2022-12-10T13:31:07;21.00;;;12.90;;
20445;SDS011;10382;49.140;9.234;2022-12-10T13:34:05;25.38;;;13.88;;
20445;SDS011;10382;49.140;9.234;2022-12-10T13:39:47;21.15;;;11.25;;
20445;SDS011;10382;49.140;9.234;2022-12-10T13:42:25;24.30;;;12.80;;
20445;SDS011;10382;49.140;9.234;2022-12-10T13:45:32;30.83;;;14.13;;
20445;SDS011;10382;49.140;9.234;2022-12-10T13:48:18;19.93;;;10.73;;
20445;SDS011;10382;49.140;9.234;2022-12-10T13:50:54;18.70;;;11.30;;
20445;SDS011;10382;49.140;9.234;2022-12-10T13:53:42;24.30;;;11.43;;
20445;SDS011;10382;49.140;9.234;2022-12-10T13:56:17;26.97;;;13.60;;
20445;SDS011;10382;49.140;9.234;2022-12-10T13:58:53;18.40;;;10.87;;
20445;SDS011;10382;49.140;9.234;2022-12-10T14:01:36;25.60;;;13.90;;
20445;SDS011;10382;49.140;9.234;2022-12-10T14:04:15;25.60;;;12.70;;
20445;SDS011;10382;49.140;9.234;2022-12-10T14:06:56;21.80;;;11.87;;
20445;SDS011;10382;49.140;9.234;2022-12-10T14:09:24;25.15;;;12.85;;
20445;SDS011;10382;49.140;9.234;2022-12-10T14:11:57;25.77;;;13.30;;
20445;SDS011;10382;49.140;9.234;2022-12-10T14:14:29;22.00;;;12.23;;
20445;SDS011;10382;49.140;9.234;2022-12-10T14:16:59;24.48;;;14.18;;
20445;SDS011;10382;49.140;9.234;2022-12-10T14:19:27;26.33;;;13.98;;
20445;SDS011;10382;49.140;9.234;2022-12-10T14:21:55;19.17;;;10.98;;
20445;SDS011;10382;49.140;9.234;2022-12-10T14:24:28;25.58;;;13.23;;
20445;SDS011;10382;49.140;9.234;2022-12-10T14:26:57;21.90;;;10.68;;
20445;SDS011;10382;49.140;9.234;2022-12-10T14:29:26;26.30;;;12.80;;
20445;SDS011;10382;49.140;9.234;2022-12-10T14:31:53;23.70;;;12.65;;
20445;SDS011;10382;49.140;9.234;2022-12-10T14:34:21;24.77;;;12.63;;
20445;SDS011;10382;49.140;9.234;2022-12-10T14:36:52;23.25;;;10.65;;
20445;SDS011;10382;49.140;9.234;2022-12-10T14:39:21;23.92;;;11.65;;
20445;SDS011;10382;49.140;9.234;2022-12-10T14:41:53;21.38;;;11.15;;
20445;SDS011;10382;49.140;9.234;2022-12-10T14:44:22;24.60;;;10.98;;
20445;SDS011;10382;49.140;9.234;2022-12-10T14:46:49;21.65;;;11.88;;
20445;SDS011;10382;49.140;9.234;2022-12-10T14:49:19;25.10;;;13.63;;
20445;SDS011;10382;49.140;9.234;2022-12-10T14:51:47;23.38;;;13.52;;